sensor_id;sensor_type;location;lat;lon;timestamp;temperature;humidity
1179;DHT22;578;48.408;10.004;2022-12-07T00:01:21;2.60;99.90
1179;DHT22;578;48.408;10.004;2022-12-07T00:03:49;2.60;99.90
1179;DHT22;578;48.408;10.004;2022-12-07T00:06:18;2.60;99.90
1179;DHT22;578;48.408;10.004;2022-12-07T00:08:46;2.60;99.90
1179;DHT22;578;48.408;10.004;2022-12-07T00:11:15;2.70;99.90
1179;DHT22;578;48.408;10.004;2022-12-07T00:13:42;2.70;99.90
1179;DHT22;578;48.408;10.004;2022-12-07T00:16:10;2.70;99.90
1179;DHT22;578;48.408;10.004;2022-12-07T00:18:40;2.60;99.90
1179;DHT22;578;48.408;10.004;2022-12-07T00:21:10;2.60;99.90
1179;DHT22;578;48.408;10.004;2022-12-07T00:23:38;2.60;99.90
1179;DHT22;578;48.408;10.004;2022-12-07T00:26:06;2.60;99.90
1179;DHT22;578;48.408;10.004;2022-12-07T00:28:33;2.60;99.90
1179;DHT22;578;48.408;10.004;2022-12-07T00:31:04;2.60;99.90
1179;DHT22;578;48.408;10.004;2022-12-07T00:33:31;2.60;99.90
1179;DHT22;578;48.408;10.004;2022-12-07T00:36:00;2.60;99.90
1179;DHT22;578;48.408;10.004;2022-12-07T00:38:28;2.50;99.90
1179;DHT22;578;48.408;10.004;2022-12-07T00:40:56;2.60;99.90
1179;DHT22;578;48.408;10.004;2022-12-07T00:43:23;2.60;99.90
1179;DHT22;578;48.408;10.004;2022-12-07T00:45:49;2.50;99.90
1179;DHT22;578;48.408;10.004;2022-12-07T00:48:16;2.50;99.90
1179;DHT22;578;48.408;10.004;2022-12-07T00:50:43;2.50;99.90
1179;DHT22;578;48.408;10.004;2022-12-07T00:53:11;2.50;99.90
1179;DHT22;578;48.408;10.004;2022-12-07T00:55:38;2.60;99.90
1179;DHT22;578;48.408;10.004;2022-12-07T00:58:05;2.60;99.90
1179;DHT22;578;48.408;10.004;2022-12-07T01:00:32;2.60;99.90
1179;DHT22;578;48.408;10.004;2022-12-07T01:03:00;2.60;99.90
1179;DHT22;578;48.408;10.004;2022-12-07T01:05:26;2.60;99.90
1179;DHT22;578;48.408;10.004;2022-12-07T01:07:53;2.60;99.90
1179;DHT22;578;48.408;10.004;2022-12-07T01:10:21;2.60;99.90
1179;DHT22;578;48.408;10.004;2022-12-07T01:12:48;2.60;99.90
1179;DHT22;578;48.408;10.004;2022-12-07T01:15:15;2.60;99.90
1179;DHT22;578;48.408;10.004;2022-12-07T01:17:42;2.60;99.90
1179;DHT22;578;48.408;10.004;2022-12-07T01:20:09;2.60;99.90
1179;DHT22;578;48.408;10.004;2022-12-07T01:22:36;2.60;99.90
1179;DHT22;578;48.408;10.004;2022-12-07T01:25:04;2.60;99.90
1179;DHT22;578;48.408;10.004;2022-12-07T01:27:32;2.60;99.90
1179;DHT22;578;48.408;10.004;2022-12-07T01:29:59;2.60;99.90
1179;DHT22;578;48.408;10.004;2022-12-07T01:32:26;2.60;99.90
1179;DHT22;578;48.408;10.004;2022-12-07T01:34:53;2.60;99.90
1179;DHT22;578;48.408;10.004;2022-12-07T01:37:20;2.60;99.90
1179;DHT22;578;48.408;10.004;2022-12-07T01:39:48;2.60;99.90
1179;DHT22;578;48.408;10.004;2022-12-07T01:42:15;2.60;99.90
1179;DHT22;578;48.408;10.004;2022-12-07T01:48:01;2.60;99.90
1179;DHT22;578;48.408;10.004;2022-12-07T01:50:28;2.60;99.90
1179;DHT22;578;48.408;10.004;2022-12-07T01:52:58;2.60;99.90
1179;DHT22;578;48.408;10.004;2022-12-07T01:55:27;2.60;99.90
1179;DHT22;578;48.408;10.004;2022-12-07T01:57:54;2.60;99.90
1179;DHT22;578;48.408;10.004;2022-12-07T02:00:22;2.60;99.90
1179;DHT22;578;48.408;10.004;2022-12-07T02:02:52;2.60;99.90
1179;DHT22;578;48.408;10.004;2022-12-07T02:05:22;2.70;99.90
1179;DHT22;578;48.408;10.004;2022-12-07T02:07:50;2.70;99.90
1179;DHT22;578;48.408;10.004;2022-12-07T02:10:20;2.60;99.90
1179;DHT22;578;48.408;10.004;2022-12-07T02:12:50;2.60;99.90
1179;DHT22;578;48.408;10.004;2022-12-07T02:15:18;2.60;99.90
1179;DHT22;578;48.408;10.004;2022-12-07T02:17:51;2.70;99.90
1179;DHT22;578;48.408;10.004;2022-12-07T02:20:28;2.70;99.90
1179;DHT22;578;48.408;10.004;2022-12-07T02:26:15;2.70;99.90
1179;DHT22;578;48.408;10.004;2022-12-07T02:29:12;2.70;99.90
1179;DHT22;578;48.408;10.004;2022-12-07T02:31:45;2.70;99.90
1179;DHT22;578;48.408;10.004;2022-12-07T02:34:19;2.70;99.90
1179;DHT22;578;48.408;10.004;2022-12-07T02:36:55;2.70;99.90
1179;DHT22;578;48.408;10.004;2022-12-07T02:39:31;2.70;99.90
1179;DHT22;578;48.408;10.004;2022-12-07T02:42:02;2.70;99.90
1179;DHT22;578;48.408;10.004;2022-12-07T02:44:32;2.70;99.90
1179;DHT22;578;48.408;10.004;2022-12-07T02:47:01;2.80;99.90
1179;DHT22;578;48.408;10.004;2022-12-07T02:49:30;2.80;99.90
1179;DHT22;578;48.408;10.004;2022-12-07T02:51:57;2.80;99.90
1179;DHT22;578;48.408;10.004;2022-12-07T02:54:24;2.70;99.90
1179;DHT22;578;48.408;10.004;2022-12-07T02:56:54;2.70;99.90
1179;DHT22;578;48.408;10.004;2022-12-07T02:59:29;2.70;99.90
1179;DHT22;578;48.408;10.004;2022-12-07T03:02:11;2.70;99.90
1179;DHT22;578;48.408;10.004;2022-12-07T03:04:50;2.70;99.90
1179;DHT22;578;48.408;10.004;2022-12-07T03:07:25;2.80;99.90
1179;DHT22;578;48.408;10.004;2022-12-07T03:10:00;2.70;99.90
1179;DHT22;578;48.408;10.004;2022-12-07T03:12:32;2.80;99.90
1179;DHT22;578;48.408;10.004;2022-12-07T03:15:07;2.80;99.90
1179;DHT22;578;48.408;10.004;2022-12-07T03:17:38;2.80;99.90
1179;DHT22;578;48.408;10.004;2022-12-07T03:20:09;2.80;99.90
1179;DHT22;578;48.408;10.004;2022-12-07T03:22:38;2.80;99.90
1179;DHT22;578;48.408;10.004;2022-12-07T03:25:10;2.80;99.90
1179;DHT22;578;48.408;10.004;2022-12-07T03:27:41;2.80;99.90
1179;DHT22;578;48.408;10.004;2022-12-07T03:30:13;2.80;99.90
1179;DHT22;578;48.408;10.004;2022-12-07T03:32:44;2.80;99.90
1179;DHT22;578;48.408;10.004;2022-12-07T03:35:15;2.80;99.90
1179;DHT22;578;48.408;10.004;2022-12-07T03:37:47;2.90;99.90
1179;DHT22;578;48.408;10.004;2022-12-07T03:40:19;2.90;99.90
1179;DHT22;578;48.408;10.004;2022-12-07T03:42:49;2.80;99.90
1179;DHT22;578;48.408;10.004;2022-12-07T03:45:16;2.80;99.90
1179;DHT22;578;48.408;10.004;2022-12-07T03:47:47;2.80;99.90
1179;DHT22;578;48.408;10.004;2022-12-07T03:50:25;2.80;99.90
1179;DHT22;578;48.408;10.004;2022-12-07T03:52:58;2.70;99.90
1179;DHT22;578;48.408;10.004;2022-12-07T03:55:28;2.70;99.90
1179;DHT22;578;48.408;10.004;2022-12-07T03:58:00;2.70;99.90
1179;DHT22;578;48.408;10.004;2022-12-07T04:00:28;2.70;99.90
1179;DHT22;578;48.408;10.004;2022-12-07T04:02:56;2.70;99.90
1179;DHT22;578;48.408;10.004;2022-12-07T04:05:23;2.70;99.90
1179;DHT22;578;48.408;10.004;2022-12-07T04:07:50;2.70;99.90
1179;DHT22;578;48.408;10.004;2022-12-07T04:10:17;2.70;99.90
1179;DHT22;578;48.408;10.004;2022-12-07T04:12:44;2.70;99.90
1179;DHT22;578;48.408;10.004;2022-12-07T04:15:11;2.60;99.90
1179;DHT22;578;48.408;10.004;2022-12-07T04:17:38;2.60;99.90
1179;DHT22;578;48.408;10.004;2022-12-07T04:20:07;2.50;99.90
1179;DHT22;578;48.408;10.004;2022-12-07T04:22:34;2.60;99.90
1179;DHT22;578;48.408;10.004;2022-12-07T04:25:01;2.50;99.90
1179;DHT22;578;48.408;10.004;2022-12-07T04:27:28;2.50;99.90
1179;DHT22;578;48.408;10.004;2022-12-07T04:29:55;2.50;99.90
1179;DHT22;578;48.408;10.004;2022-12-07T04:32:22;2.60;99.90
1179;DHT22;578;48.408;10.004;2022-12-07T04:34:48;2.40;99.90
1179;DHT22;578;48.408;10.004;2022-12-07T04:37:17;2.40;99.90
1179;DHT22;578;48.408;10.004;2022-12-07T04:39:43;2.40;99.90
1179;DHT22;578;48.408;10.004;2022-12-07T04:42:11;2.40;99.90
1179;DHT22;578;48.408;10.004;2022-12-07T04:44:38;2.40;99.90
1179;DHT22;578;48.408;10.004;2022-12-07T04:47:05;2.40;99.90
1179;DHT22;578;48.408;10.004;2022-12-07T04:49:32;2.30;99.90
1179;DHT22;578;48.408;10.004;2022-12-07T04:51:59;2.40;99.90
1179;DHT22;578;48.408;10.004;2022-12-07T04:54:27;2.30;99.90
1179;DHT22;578;48.408;10.004;2022-12-07T04:56:54;2.30;99.90
1179;DHT22;578;48.408;10.004;2022-12-07T04:59:21;2.30;99.90
1179;DHT22;578;48.408;10.004;2022-12-07T05:01:47;2.40;99.90
1179;DHT22;578;48.408;10.004;2022-12-07T05:04:14;2.30;99.90
1179;DHT22;578;48.408;10.004;2022-12-07T05:06:43;2.30;99.90
1179;DHT22;578;48.408;10.004;2022-12-07T05:09:09;2.20;99.90
1179;DHT22;578;48.408;10.004;2022-12-07T05:11:37;2.20;99.90
1179;DHT22;578;48.408;10.004;2022-12-07T05:14:07;2.20;99.90
1179;DHT22;578;48.408;10.004;2022-12-07T05:16:34;2.10;99.90
1179;DHT22;578;48.408;10.004;2022-12-07T05:19:00;2.10;99.90
1179;DHT22;578;48.408;10.004;2022-12-07T05:21:27;2.10;99.90
1179;DHT22;578;48.408;10.004;2022-12-07T05:23:54;2.20;99.90
1179;DHT22;578;48.408;10.004;2022-12-07T05:26:21;2.20;99.90
1179;DHT22;578;48.408;10.004;2022-12-07T05:28:51;2.10;99.90
1179;DHT22;578;48.408;10.004;2022-12-07T05:31:18;2.00;99.90
1179;DHT22;578;48.408;10.004;2022-12-07T05:33:45;2.10;99.90
1179;DHT22;578;48.408;10.004;2022-12-07T05:36:12;2.10;99.90
1179;DHT22;578;48.408;10.004;2022-12-07T05:38:39;2.20;99.90
1179;DHT22;578;48.408;10.004;2022-12-07T05:41:07;2.20;99.90
1179;DHT22;578;48.408;10.004;2022-12-07T05:43:55;2.20;99.90
1179;DHT22;578;48.408;10.004;2022-12-07T05:46:22;2.20;99.90
1179;DHT22;578;48.408;10.004;2022-12-07T05:48:49;2.20;99.90
1179;DHT22;578;48.408;10.004;2022-12-07T05:51:16;2.10;99.90
1179;DHT22;578;48.408;10.004;2022-12-07T05:53:43;2.00;99.90
1179;DHT22;578;48.408;10.004;2022-12-07T05:56:09;2.00;99.90
1179;DHT22;578;48.408;10.004;2022-12-07T05:58:36;2.00;99.90
1179;DHT22;578;48.408;10.004;2022-12-07T06:01:22;1.90;99.90
1179;DHT22;578;48.408;10.004;2022-12-07T06:03:48;1.90;99.90
1179;DHT22;578;48.408;10.004;2022-12-07T06:06:15;1.90;99.90
1179;DHT22;578;48.408;10.004;2022-12-07T06:08:42;1.90;99.90
1179;DHT22;578;48.408;10.004;2022-12-07T06:11:09;2.00;99.90
1179;DHT22;578;48.408;10.004;2022-12-07T06:13:53;2.00;99.90
1179;DHT22;578;48.408;10.004;2022-12-07T06:16:21;2.00;99.90
1179;DHT22;578;48.408;10.004;2022-12-07T06:18:48;1.90;99.90
1179;DHT22;578;48.408;10.004;2022-12-07T06:21:15;1.90;99.90
1179;DHT22;578;48.408;10.004;2022-12-07T06:23:41;1.80;99.90
1179;DHT22;578;48.408;10.004;2022-12-07T06:26:08;1.80;99.90
1179;DHT22;578;48.408;10.004;2022-12-07T06:28:35;1.90;99.90
1179;DHT22;578;48.408;10.004;2022-12-07T06:31:02;1.80;99.90
1179;DHT22;578;48.408;10.004;2022-12-07T06:33:30;1.70;99.90
1179;DHT22;578;48.408;10.004;2022-12-07T06:35:57;1.70;99.90
1179;DHT22;578;48.408;10.004;2022-12-07T06:38:23;1.70;99.90
1179;DHT22;578;48.408;10.004;2022-12-07T06:40:51;1.70;99.90
1179;DHT22;578;48.408;10.004;2022-12-07T06:43:17;1.60;99.90
1179;DHT22;578;48.408;10.004;2022-12-07T06:45:44;1.60;99.90
1179;DHT22;578;48.408;10.004;2022-12-07T06:48:11;1.80;99.90
1179;DHT22;578;48.408;10.004;2022-12-07T06:50:39;1.80;99.90
1179;DHT22;578;48.408;10.004;2022-12-07T06:53:06;1.80;99.90
1179;DHT22;578;48.408;10.004;2022-12-07T06:55:32;1.90;99.90
1179;DHT22;578;48.408;10.004;2022-12-07T06:57:59;1.90;99.90
1179;DHT22;578;48.408;10.004;2022-12-07T07:00:27;1.90;99.90
1179;DHT22;578;48.408;10.004;2022-12-07T07:02:53;2.00;99.90
1179;DHT22;578;48.408;10.004;2022-12-07T07:05:20;2.00;99.90
1179;DHT22;578;48.408;10.004;2022-12-07T07:07:49;2.00;99.90
1179;DHT22;578;48.408;10.004;2022-12-07T07:10:16;2.00;99.90
1179;DHT22;578;48.408;10.004;2022-12-07T07:12:42;2.00;99.90
1179;DHT22;578;48.408;10.004;2022-12-07T07:15:10;2.00;99.90
1179;DHT22;578;48.408;10.004;2022-12-07T07:17:37;2.00;99.90
1179;DHT22;578;48.408;10.004;2022-12-07T07:20:05;2.00;99.90
1179;DHT22;578;48.408;10.004;2022-12-07T07:22:32;2.10;99.90
1179;DHT22;578;48.408;10.004;2022-12-07T07:25:00;2.10;99.90
1179;DHT22;578;48.408;10.004;2022-12-07T07:27:27;2.10;99.90
1179;DHT22;578;48.408;10.004;2022-12-07T07:29:53;2.00;99.90
1179;DHT22;578;48.408;10.004;2022-12-07T07:32:20;2.00;99.90
1179;DHT22;578;48.408;10.004;2022-12-07T07:34:47;2.00;99.90
1179;DHT22;578;48.408;10.004;2022-12-07T07:37:14;2.10;99.90
1179;DHT22;578;48.408;10.004;2022-12-07T07:39:41;2.50;99.90
1179;DHT22;578;48.408;10.004;2022-12-07T07:42:09;3.00;99.90
1179;DHT22;578;48.408;10.004;2022-12-07T07:44:35;3.80;99.90
1179;DHT22;578;48.408;10.004;2022-12-07T07:47:03;3.70;99.90
1179;DHT22;578;48.408;10.004;2022-12-07T07:49:29;4.50;99.90
1179;DHT22;578;48.408;10.004;2022-12-07T07:51:56;4.20;99.90
1179;DHT22;578;48.408;10.004;2022-12-07T07:54:23;4.90;99.90
1179;DHT22;578;48.408;10.004;2022-12-07T07:56:50;5.30;99.90
1179;DHT22;578;48.408;10.004;2022-12-07T07:59:18;5.70;99.90
1179;DHT22;578;48.408;10.004;2022-12-07T08:01:44;6.40;99.90
1179;DHT22;578;48.408;10.004;2022-12-07T08:04:11;6.40;99.90
1179;DHT22;578;48.408;10.004;2022-12-07T08:06:38;6.40;97.80
1179;DHT22;578;48.408;10.004;2022-12-07T08:09:05;6.40;96.90
1179;DHT22;578;48.408;10.004;2022-12-07T08:11:31;5.10;98.20
1179;DHT22;578;48.408;10.004;2022-12-07T08:13:58;4.30;99.90
1179;DHT22;578;48.408;10.004;2022-12-07T08:16:26;4.10;99.90
1179;DHT22;578;48.408;10.004;2022-12-07T08:18:53;4.20;99.90
1179;DHT22;578;48.408;10.004;2022-12-07T08:21:20;4.00;99.90
1179;DHT22;578;48.408;10.004;2022-12-07T08:23:46;4.00;99.90
1179;DHT22;578;48.408;10.004;2022-12-07T08:26:15;4.00;99.90
1179;DHT22;578;48.408;10.004;2022-12-07T08:28:42;4.10;99.90
1179;DHT22;578;48.408;10.004;2022-12-07T08:31:12;4.30;99.90
1179;DHT22;578;48.408;10.004;2022-12-07T08:33:41;4.20;99.90
1179;DHT22;578;48.408;10.004;2022-12-07T08:36:09;4.20;99.90
1179;DHT22;578;48.408;10.004;2022-12-07T08:38:37;4.20;99.90
1179;DHT22;578;48.408;10.004;2022-12-07T08:41:04;4.00;99.90
1179;DHT22;578;48.408;10.004;2022-12-07T08:43:31;3.90;99.90
1179;DHT22;578;48.408;10.004;2022-12-07T08:46:04;3.90;99.90
1179;DHT22;578;48.408;10.004;2022-12-07T08:48:33;3.80;99.90
1179;DHT22;578;48.408;10.004;2022-12-07T08:51:02;3.90;99.90
1179;DHT22;578;48.408;10.004;2022-12-07T08:53:30;4.00;99.90
1179;DHT22;578;48.408;10.004;2022-12-07T08:55:57;4.00;99.90
1179;DHT22;578;48.408;10.004;2022-12-07T08:58:24;4.00;99.90
1179;DHT22;578;48.408;10.004;2022-12-07T09:00:51;4.10;99.90
1179;DHT22;578;48.408;10.004;2022-12-07T09:03:17;4.10;99.90
1179;DHT22;578;48.408;10.004;2022-12-07T09:05:44;4.00;99.90
1179;DHT22;578;48.408;10.004;2022-12-07T09:08:12;4.00;98.50
1179;DHT22;578;48.408;10.004;2022-12-07T09:10:39;4.10;99.90
1179;DHT22;578;48.408;10.004;2022-12-07T09:13:06;4.20;99.90
1179;DHT22;578;48.408;10.004;2022-12-07T09:15:33;4.20;99.90
1179;DHT22;578;48.408;10.004;2022-12-07T09:17:59;4.20;99.90
1179;DHT22;578;48.408;10.004;2022-12-07T09:20:26;4.10;99.30
1179;DHT22;578;48.408;10.004;2022-12-07T09:22:53;4.10;96.50
1179;DHT22;578;48.408;10.004;2022-12-07T09:25:21;4.20;97.70
1179;DHT22;578;48.408;10.004;2022-12-07T09:27:47;4.20;96.50
1179;DHT22;578;48.408;10.004;2022-12-07T09:30:14;4.30;97.50
1179;DHT22;578;48.408;10.004;2022-12-07T09:32:41;4.40;99.10
1179;DHT22;578;48.408;10.004;2022-12-07T09:35:08;4.40;98.70
1179;DHT22;578;48.408;10.004;2022-12-07T09:37:35;4.40;96.90
1179;DHT22;578;48.408;10.004;2022-12-07T09:40:03;4.50;98.00
1179;DHT22;578;48.408;10.004;2022-12-07T09:42:34;4.50;96.00
1179;DHT22;578;48.408;10.004;2022-12-07T09:45:04;4.50;95.80
1179;DHT22;578;48.408;10.004;2022-12-07T09:47:33;4.70;97.10
1179;DHT22;578;48.408;10.004;2022-12-07T09:50:04;4.80;98.20
1179;DHT22;578;48.408;10.004;2022-12-07T09:52:31;4.80;97.90
1179;DHT22;578;48.408;10.004;2022-12-07T09:54:58;4.90;97.40
1179;DHT22;578;48.408;10.004;2022-12-07T09:57:28;4.70;94.10
1179;DHT22;578;48.408;10.004;2022-12-07T10:00:00;4.80;94.20
1179;DHT22;578;48.408;10.004;2022-12-07T10:02:35;4.80;94.30
1179;DHT22;578;48.408;10.004;2022-12-07T10:05:04;4.80;93.60
1179;DHT22;578;48.408;10.004;2022-12-07T10:07:31;4.80;93.30
1179;DHT22;578;48.408;10.004;2022-12-07T10:09:58;5.00;94.10
1179;DHT22;578;48.408;10.004;2022-12-07T10:12:25;5.10;92.60
1179;DHT22;578;48.408;10.004;2022-12-07T10:15:00;5.20;93.60
1179;DHT22;578;48.408;10.004;2022-12-07T10:17:34;5.20;91.40
1179;DHT22;578;48.408;10.004;2022-12-07T10:20:28;5.20;91.00
1179;DHT22;578;48.408;10.004;2022-12-07T10:23:00;5.10;91.90
1179;DHT22;578;48.408;10.004;2022-12-07T10:25:30;4.90;89.50
1179;DHT22;578;48.408;10.004;2022-12-07T10:28:00;5.10;92.10
1179;DHT22;578;48.408;10.004;2022-12-07T10:30:29;5.40;91.80
1179;DHT22;578;48.408;10.004;2022-12-07T10:32:56;5.40;92.90
1179;DHT22;578;48.408;10.004;2022-12-07T10:35:25;5.20;90.40
1179;DHT22;578;48.408;10.004;2022-12-07T10:37:54;5.40;92.30
1179;DHT22;578;48.408;10.004;2022-12-07T10:40:32;5.40;92.10
1179;DHT22;578;48.408;10.004;2022-12-07T10:43:17;5.30;90.80
1179;DHT22;578;48.408;10.004;2022-12-07T10:46:07;5.20;90.80
1179;DHT22;578;48.408;10.004;2022-12-07T10:48:40;5.50;92.80
1179;DHT22;578;48.408;10.004;2022-12-07T10:51:17;5.50;90.30
1179;DHT22;578;48.408;10.004;2022-12-07T10:53:53;5.60;91.00
1179;DHT22;578;48.408;10.004;2022-12-07T10:56:47;5.60;86.50
1179;DHT22;578;48.408;10.004;2022-12-07T11:02:24;5.70;89.50
1179;DHT22;578;48.408;10.004;2022-12-07T11:04:59;5.90;89.80
1179;DHT22;578;48.408;10.004;2022-12-07T11:07:38;5.80;86.00
1179;DHT22;578;48.408;10.004;2022-12-07T11:10:13;5.80;85.50
1179;DHT22;578;48.408;10.004;2022-12-07T11:12:50;5.70;85.50
1179;DHT22;578;48.408;10.004;2022-12-07T11:15:24;5.50;82.60
1179;DHT22;578;48.408;10.004;2022-12-07T11:17:58;5.50;86.70
1179;DHT22;578;48.408;10.004;2022-12-07T11:20:39;5.50;89.20
1179;DHT22;578;48.408;10.004;2022-12-07T11:23:16;5.50;83.10
1179;DHT22;578;48.408;10.004;2022-12-07T11:25:51;5.50;85.90
1179;DHT22;578;48.408;10.004;2022-12-07T11:28:28;5.60;87.40
1179;DHT22;578;48.408;10.004;2022-12-07T11:31:06;5.70;88.60
1179;DHT22;578;48.408;10.004;2022-12-07T11:33:43;5.80;87.20
1179;DHT22;578;48.408;10.004;2022-12-07T11:36:24;5.60;82.30
1179;DHT22;578;48.408;10.004;2022-12-07T11:38:59;5.70;85.90
1179;DHT22;578;48.408;10.004;2022-12-07T11:41:29;5.90;86.70
1179;DHT22;578;48.408;10.004;2022-12-07T11:44:01;5.60;81.90
1179;DHT22;578;48.408;10.004;2022-12-07T11:46:49;5.80;83.70
1179;DHT22;578;48.408;10.004;2022-12-07T11:49:26;5.70;84.70
1179;DHT22;578;48.408;10.004;2022-12-07T11:51:57;5.80;84.60
1179;DHT22;578;48.408;10.004;2022-12-07T11:54:28;5.70;83.80
1179;DHT22;578;48.408;10.004;2022-12-07T11:56:59;5.70;85.20
1179;DHT22;578;48.408;10.004;2022-12-07T11:59:33;5.60;82.80
1179;DHT22;578;48.408;10.004;2022-12-07T12:02:12;5.70;83.40
1179;DHT22;578;48.408;10.004;2022-12-07T12:04:49;5.60;80.30
1179;DHT22;578;48.408;10.004;2022-12-07T12:07:22;5.40;79.40
1179;DHT22;578;48.408;10.004;2022-12-07T12:09:52;5.50;81.70
1179;DHT22;578;48.408;10.004;2022-12-07T12:12:30;5.40;81.30
1179;DHT22;578;48.408;10.004;2022-12-07T12:15:15;5.60;80.10
1179;DHT22;578;48.408;10.004;2022-12-07T12:18:18;5.70;85.10
1179;DHT22;578;48.408;10.004;2022-12-07T12:20:50;5.80;83.50
1179;DHT22;578;48.408;10.004;2022-12-07T12:23:20;5.70;81.00
1179;DHT22;578;48.408;10.004;2022-12-07T12:25:50;5.70;79.50
1179;DHT22;578;48.408;10.004;2022-12-07T12:28:22;5.70;80.20
1179;DHT22;578;48.408;10.004;2022-12-07T12:31:05;5.70;85.00
1179;DHT22;578;48.408;10.004;2022-12-07T12:33:32;5.60;81.00
1179;DHT22;578;48.408;10.004;2022-12-07T12:36:21;5.50;80.20
1179;DHT22;578;48.408;10.004;2022-12-07T12:38:50;5.40;77.40
1179;DHT22;578;48.408;10.004;2022-12-07T12:41:53;5.60;83.00
1179;DHT22;578;48.408;10.004;2022-12-07T12:45:18;5.70;82.00
1179;DHT22;578;48.408;10.004;2022-12-07T12:47:54;5.50;79.80
1179;DHT22;578;48.408;10.004;2022-12-07T12:50:24;5.70;81.80
1179;DHT22;578;48.408;10.004;2022-12-07T12:52:58;5.50;80.60
1179;DHT22;578;48.408;10.004;2022-12-07T12:58:40;5.30;76.70
1179;DHT22;578;48.408;10.004;2022-12-07T13:04:29;5.40;85.10
1179;DHT22;578;48.408;10.004;2022-12-07T13:06:57;5.40;86.60
1179;DHT22;578;48.408;10.004;2022-12-07T13:09:27;5.30;81.80
1179;DHT22;578;48.408;10.004;2022-12-07T13:12:01;5.40;80.30
1179;DHT22;578;48.408;10.004;2022-12-07T13:14:43;5.40;86.30
1179;DHT22;578;48.408;10.004;2022-12-07T13:20:45;5.40;81.50
1179;DHT22;578;48.408;10.004;2022-12-07T13:23:14;5.30;82.40
1179;DHT22;578;48.408;10.004;2022-12-07T13:25:51;5.20;81.40
1179;DHT22;578;48.408;10.004;2022-12-07T13:28:18;5.40;81.20
1179;DHT22;578;48.408;10.004;2022-12-07T13:30:52;5.30;81.50
1179;DHT22;578;48.408;10.004;2022-12-07T13:33:20;5.30;84.60
1179;DHT22;578;48.408;10.004;2022-12-07T13:35:46;5.30;84.90
1179;DHT22;578;48.408;10.004;2022-12-07T13:38:23;5.40;84.90
1179;DHT22;578;48.408;10.004;2022-12-07T13:41:17;5.30;81.10
1179;DHT22;578;48.408;10.004;2022-12-07T13:43:48;5.10;81.90
1179;DHT22;578;48.408;10.004;2022-12-07T13:46:17;5.10;81.20
1179;DHT22;578;48.408;10.004;2022-12-07T13:48:46;5.00;79.30
1179;DHT22;578;48.408;10.004;2022-12-07T13:51:19;5.10;80.30
1179;DHT22;578;48.408;10.004;2022-12-07T13:53:47;5.20;82.40
1179;DHT22;578;48.408;10.004;2022-12-07T13:56:14;5.10;83.50
1179;DHT22;578;48.408;10.004;2022-12-07T13:58:42;5.10;82.40
1179;DHT22;578;48.408;10.004;2022-12-07T14:01:10;5.00;82.60
1179;DHT22;578;48.408;10.004;2022-12-07T14:03:39;5.00;80.60
1179;DHT22;578;48.408;10.004;2022-12-07T14:06:23;4.90;80.60
1179;DHT22;578;48.408;10.004;2022-12-07T14:09:09;4.90;80.80
1179;DHT22;578;48.408;10.004;2022-12-07T14:11:43;4.90;82.50
1179;DHT22;578;48.408;10.004;2022-12-07T14:14:15;4.80;81.20
1179;DHT22;578;48.408;10.004;2022-12-07T14:16:55;4.90;83.50
1179;DHT22;578;48.408;10.004;2022-12-07T14:19:42;4.80;83.00
1179;DHT22;578;48.408;10.004;2022-12-07T14:22:27;4.80;81.80
1179;DHT22;578;48.408;10.004;2022-12-07T14:25:20;4.70;86.60
1179;DHT22;578;48.408;10.004;2022-12-07T14:28:04;4.70;81.80
1179;DHT22;578;48.408;10.004;2022-12-07T14:30:40;4.60;85.00
1179;DHT22;578;48.408;10.004;2022-12-07T14:33:16;4.60;87.00
1179;DHT22;578;48.408;10.004;2022-12-07T14:35:52;4.60;83.90
1179;DHT22;578;48.408;10.004;2022-12-07T14:38:26;4.50;85.10
1179;DHT22;578;48.408;10.004;2022-12-07T14:40:56;4.40;86.70
1179;DHT22;578;48.408;10.004;2022-12-07T14:43:44;4.40;87.60
1179;DHT22;578;48.408;10.004;2022-12-07T14:46:12;4.40;87.70
1179;DHT22;578;48.408;10.004;2022-12-07T14:48:39;4.30;88.30
1179;DHT22;578;48.408;10.004;2022-12-07T14:51:08;4.30;87.80
1179;DHT22;578;48.408;10.004;2022-12-07T14:53:40;4.30;88.00
1179;DHT22;578;48.408;10.004;2022-12-07T14:56:08;4.20;89.50
1179;DHT22;578;48.408;10.004;2022-12-07T14:58:35;4.10;91.80
1179;DHT22;578;48.408;10.004;2022-12-07T15:01:02;4.10;90.70
1179;DHT22;578;48.408;10.004;2022-12-07T15:03:30;4.10;91.80
1179;DHT22;578;48.408;10.004;2022-12-07T15:05:57;4.00;91.00
1179;DHT22;578;48.408;10.004;2022-12-07T15:08:24;4.00;91.10
1179;DHT22;578;48.408;10.004;2022-12-07T15:10:50;3.90;90.60
1179;DHT22;578;48.408;10.004;2022-12-07T15:13:17;3.80;91.60
1179;DHT22;578;48.408;10.004;2022-12-07T15:16:02;3.80;92.90
1179;DHT22;578;48.408;10.004;2022-12-07T15:18:30;3.70;93.60
1179;DHT22;578;48.408;10.004;2022-12-07T15:20:57;3.70;94.30
1179;DHT22;578;48.408;10.004;2022-12-07T15:23:23;3.60;94.50
1179;DHT22;578;48.408;10.004;2022-12-07T15:25:50;3.50;94.20
1179;DHT22;578;48.408;10.004;2022-12-07T15:28:17;3.50;95.00
1179;DHT22;578;48.408;10.004;2022-12-07T15:30:44;3.50;95.30
1179;DHT22;578;48.408;10.004;2022-12-07T15:33:12;3.40;96.10
1179;DHT22;578;48.408;10.004;2022-12-07T15:35:41;3.40;96.10
1179;DHT22;578;48.408;10.004;2022-12-07T15:38:08;3.30;96.10
1179;DHT22;578;48.408;10.004;2022-12-07T15:40:35;3.20;96.70
1179;DHT22;578;48.408;10.004;2022-12-07T15:43:02;3.20;96.70
1179;DHT22;578;48.408;10.004;2022-12-07T15:45:29;3.20;97.20
1179;DHT22;578;48.408;10.004;2022-12-07T15:47:55;3.20;96.90
1179;DHT22;578;48.408;10.004;2022-12-07T15:50:22;3.20;97.40
1179;DHT22;578;48.408;10.004;2022-12-07T15:52:50;3.20;97.20
1179;DHT22;578;48.408;10.004;2022-12-07T15:55:17;3.20;98.60
1179;DHT22;578;48.408;10.004;2022-12-07T15:57:44;3.20;99.10
1179;DHT22;578;48.408;10.004;2022-12-07T16:00:11;3.20;99.50
1179;DHT22;578;48.408;10.004;2022-12-07T16:02:39;3.10;99.60
1179;DHT22;578;48.408;10.004;2022-12-07T16:05:06;3.10;99.90
1179;DHT22;578;48.408;10.004;2022-12-07T16:07:33;3.00;99.90
1179;DHT22;578;48.408;10.004;2022-12-07T16:10:01;3.00;99.90
1179;DHT22;578;48.408;10.004;2022-12-07T16:12:28;3.10;99.90
1179;DHT22;578;48.408;10.004;2022-12-07T16:14:54;3.00;99.90
1179;DHT22;578;48.408;10.004;2022-12-07T16:17:21;3.00;99.90
1179;DHT22;578;48.408;10.004;2022-12-07T16:19:48;3.00;99.90
1179;DHT22;578;48.408;10.004;2022-12-07T16:22:15;3.10;99.90
1179;DHT22;578;48.408;10.004;2022-12-07T16:24:41;3.00;99.90
1179;DHT22;578;48.408;10.004;2022-12-07T16:27:09;3.10;99.90
1179;DHT22;578;48.408;10.004;2022-12-07T16:29:36;3.00;99.90
1179;DHT22;578;48.408;10.004;2022-12-07T16:32:03;3.00;99.90
1179;DHT22;578;48.408;10.004;2022-12-07T16:34:30;2.90;99.90
1179;DHT22;578;48.408;10.004;2022-12-07T16:36:57;2.90;99.90
1179;DHT22;578;48.408;10.004;2022-12-07T16:39:23;2.90;99.90
1179;DHT22;578;48.408;10.004;2022-12-07T16:41:50;2.90;99.90
1179;DHT22;578;48.408;10.004;2022-12-07T16:44:19;2.90;99.90
1179;DHT22;578;48.408;10.004;2022-12-07T16:46:46;2.80;99.90
1179;DHT22;578;48.408;10.004;2022-12-07T16:49:13;2.80;99.90
1179;DHT22;578;48.408;10.004;2022-12-07T16:51:40;2.80;99.90
1179;DHT22;578;48.408;10.004;2022-12-07T16:54:09;2.80;99.90
1179;DHT22;578;48.408;10.004;2022-12-07T16:56:36;2.80;99.90